sensor_id;sensor_type;location;lat;lon;timestamp;pressure;altitude;pressure_sealevel;temperature;humidity
69707;BME280;56975;55.726;37.566;2024-01-15T00:00:00;97650.0;;;-9.7;92.2
69707;BME280;56975;55.726;37.566;2024-01-15T00:05:00;97640.0;;;-9.8;92.3
69707;BME280;56975;55.726;37.566;2024-01-15T00:10:00;97640.0;;;-9.8;92.5
69707;BME280;56975;55.726;37.566;2024-01-15T00:15:00;97630.0;;;-9.7;92.4
69707;BME280;56975;55.726;37.566;2024-01-15T00:20:00;97620.0;;;-9.7;92.6
69707;BME280;56975;55.726;37.566;2024-01-15T00:25:00;97620.0;;;-9.6;92.6
69707;BME280;56975;55.726;37.566;2024-01-15T00:30:00;97620.0;;;-9.6;92.5
69707;BME280;56975;55.726;37.566;2024-01-15T00:35:00;97610.0;;;-9.7;92.6
69707;BME280;56975;55.726;37.566;2024-01-15T00:40:00;97610.0;;;-9.6;92.6
69707;BME280;56975;55.726;37.566;2024-01-15T00:45:00;97620.0;;;-9.4;92.6
69707;BME280;56975;55.726;37.566;2024-01-15T00:50:00;97610.0;;;-9.4;92.4
69707;BME280;56975;55.726;37.566;2024-01-15T00:55:00;97590.0;;;-9.5;92.6
69707;BME280;56975;55.726;37.566;2024-01-15T01:00:00;97600.0;;;-9.4;92.5
69707;BME280;56975;55.726;37.566;2024-01-15T01:05:00;97600.0;;;-9.3;92.4
69707;BME280;56975;55.726;37.566;2024-01-15T01:10:00;97580.0;;;-9.3;92.6
69707;BME280;56975;55.726;37.566;2024-01-15T01:15:07;97580.0;;;-9.3;92.8
69707;BME280;56975;55.726;37.566;2024-01-15T01:20:00;97570.0;;;-9.3;93.2
69707;BME280;56975;55.726;37.566;2024-01-15T01:25:00;97570.0;;;-9.2;93.2
69707;BME280;56975;55.726;37.566;2024-01-15T01:30:00;97560.0;;;-9.2;93.2
69707;BME280;56975;55.726;37.566;2024-01-15T01:35:00;97550.0;;;-9.2;93.1
69707;BME280;56975;55.726;37.566;2024-01-15T01:40:00;97550.0;;;-9.1;93.2
69707;BME280;56975;55.726;37.566;2024-01-15T01:45:00;97540.0;;;-9.0;93.2
69707;BME280;56975;55.726;37.566;2024-01-15T01:50:01;97530.0;;;-9.1;93.2
69707;BME280;56975;55.726;37.566;2024-01-15T01:55:02;97540.0;;;-8.9;93.2
69707;BME280;56975;55.726;37.566;2024-01-15T02:00:01;97530.0;;;-8.8;93.8
69707;BME280;56975;55.726;37.566;2024-01-15T02:05:00;97520.0;;;-8.7;93.8
69707;BME280;56975;55.726;37.566;2024-01-15T02:10:00;97530.0;;;-8.7;93.7
69707;BME280;56975;55.726;37.566;2024-01-15T02:15:00;97520.0;;;-8.7;93.5
69707;BME280;56975;55.726;37.566;2024-01-15T02:20:00;97520.0;;;-8.5;93.9
69707;BME280;56975;55.726;37.566;2024-01-15T02:25:00;97530.0;;;-8.6;93.4
69707;BME280;56975;55.726;37.566;2024-01-15T02:30:00;97520.0;;;-8.5;93.4
69707;BME280;56975;55.726;37.566;2024-01-15T02:35:00;97520.0;;;-8.4;93.0
69707;BME280;56975;55.726;37.566;2024-01-15T02:40:00;97520.0;;;-8.4;92.7
69707;BME280;56975;55.726;37.566;2024-01-15T02:45:05;97530.0;;;-8.3;92.8
69707;BME280;56975;55.726;37.566;2024-01-15T02:50:00;97510.0;;;-8.3;93.5
69707;BME280;56975;55.726;37.566;2024-01-15T02:55:00;97520.0;;;-8.1;93.4
69707;BME280;56975;55.726;37.566;2024-01-15T03:00:01;97520.0;;;-8.2;93.0
69707;BME280;56975;55.726;37.566;2024-01-15T03:05:00;97520.0;;;-8.0;92.9
69707;BME280;56975;55.726;37.566;2024-01-15T03:10:00;97520.0;;;-8.1;93.0
69707;BME280;56975;55.726;37.566;2024-01-15T03:15:01;97510.0;;;-7.9;92.7
69707;BME280;56975;55.726;37.566;2024-01-15T03:20:00;97510.0;;;-7.9;92.9
69707;BME280;56975;55.726;37.566;2024-01-15T03:25:00;97500.0;;;-7.8;92.9
69707;BME280;56975;55.726;37.566;2024-01-15T03:30:00;97500.0;;;-7.8;93.2
69707;BME280;56975;55.726;37.566;2024-01-15T03:35:00;97490.0;;;-7.7;92.9
69707;BME280;56975;55.726;37.566;2024-01-15T03:40:00;97490.0;;;-7.7;93.1
69707;BME280;56975;55.726;37.566;2024-01-15T03:45:00;97480.0;;;-7.7;93.1
69707;BME280;56975;55.726;37.566;2024-01-15T03:50:00;97480.0;;;-7.7;93.5
69707;BME280;56975;55.726;37.566;2024-01-15T03:55:00;97480.0;;;-7.6;93.7
69707;BME280;56975;55.726;37.566;2024-01-15T04:00:00;97480.0;;;-7.6;93.9
69707;BME280;56975;55.726;37.566;2024-01-15T04:05:00;97480.0;;;-7.5;93.6
69707;BME280;56975;55.726;37.566;2024-01-15T04:10:00;97480.0;;;-7.3;93.9
69707;BME280;56975;55.726;37.566;2024-01-15T04:15:00;97470.0;;;-7.4;95.0
69707;BME280;56975;55.726;37.566;2024-01-15T04:20:00;97470.0;;;-7.4;96.0
69707;BME280;56975;55.726;37.566;2024-01-15T04:25:00;97470.0;;;-7.5;96.2
69707;BME280;56975;55.726;37.566;2024-01-15T04:30:00;97460.0;;;-7.4;96.4
69707;BME280;56975;55.726;37.566;2024-01-15T04:35:00;97470.0;;;-7.4;96.6
69707;BME280;56975;55.726;37.566;2024-01-15T04:40:00;97450.0;;;-7.4;96.4
69707;BME280;56975;55.726;37.566;2024-01-15T04:45:00;97470.0;;;-7.3;96.8
69707;BME280;56975;55.726;37.566;2024-01-15T04:50:00;97460.0;;;-7.3;96.6
69707;BME280;56975;55.726;37.566;2024-01-15T04:55:00;97460.0;;;-7.2;96.8
69707;BME280;56975;55.726;37.566;2024-01-15T05:00:00;97450.0;;;-7.2;97.0
69707;BME280;56975;55.726;37.566;2024-01-15T05:05:00;97450.0;;;-7.2;97.1
69707;BME280;56975;55.726;37.566;2024-01-15T05:10:00;97460.0;;;-7.1;98.1
69707;BME280;56975;55.726;37.566;2024-01-15T05:15:00;97460.0;;;-7.1;98.0
69707;BME280;56975;55.726;37.566;2024-01-15T05:20:00;97460.0;;;-6.9;97.5
69707;BME280;56975;55.726;37.566;2024-01-15T05:25:00;97460.0;;;-6.9;97.6
69707;BME280;56975;55.726;37.566;2024-01-15T05:30:00;97450.0;;;-6.8;97.3
69707;BME280;56975;55.726;37.566;2024-01-15T05:35:00;97460.0;;;-6.9;97.2
69707;BME280;56975;55.726;37.566;2024-01-15T05:40:00;97460.0;;;-6.9;97.7
69707;BME280;56975;55.726;37.566;2024-01-15T05:45:00;97450.0;;;-6.8;97.5
69707;BME280;56975;55.726;37.566;2024-01-15T05:50:00;97470.0;;;-6.8;96.9
69707;BME280;56975;55.726;37.566;2024-01-15T05:55:00;97460.0;;;-6.7;96.6
69707;BME280;56975;55.726;37.566;2024-01-15T06:00:00;97450.0;;;-6.7;96.6
69707;BME280;56975;55.726;37.566;2024-01-15T06:05:00;97460.0;;;-6.6;96.2
69707;BME280;56975;55.726;37.566;2024-01-15T06:10:00;97450.0;;;-6.6;96.3
69707;BME280;56975;55.726;37.566;2024-01-15T06:15:00;97450.0;;;-6.5;96.3
69707;BME280;56975;55.726;37.566;2024-01-15T06:20:00;97460.0;;;-6.4;96.2
69707;BME280;56975;55.726;37.566;2024-01-15T06:25:00;97450.0;;;-6.3;96.4
69707;BME280;56975;55.726;37.566;2024-01-15T06:30:00;97460.0;;;-6.3;96.3
69707;BME280;56975;55.726;37.566;2024-01-15T06:35:00;97460.0;;;-6.2;96.0
69707;BME280;56975;55.726;37.566;2024-01-15T06:40:00;97460.0;;;-6.2;96.3
69707;BME280;56975;55.726;37.566;2024-01-15T06:45:00;97450.0;;;-6.1;96.3
69707;BME280;56975;55.726;37.566;2024-01-15T06:50:00;97460.0;;;-5.9;95.8
69707;BME280;56975;55.726;37.566;2024-01-15T06:55:00;97460.0;;;-5.9;96.1
69707;BME280;56975;55.726;37.566;2024-01-15T07:00:00;97460.0;;;-5.8;96.3
69707;BME280;56975;55.726;37.566;2024-01-15T07:05:00;97470.0;;;-5.8;96.8
69707;BME280;56975;55.726;37.566;2024-01-15T07:15:00;97460.0;;;-5.7;96.4
69707;BME280;56975;55.726;37.566;2024-01-15T07:20:00;97460.0;;;-5.5;96.1
69707;BME280;56975;55.726;37.566;2024-01-15T07:25:00;97460.0;;;-5.4;95.7
69707;BME280;56975;55.726;37.566;2024-01-15T07:30:00;97460.0;;;-5.3;95.5
69707;BME280;56975;55.726;37.566;2024-01-15T07:35:00;97460.0;;;-5.1;95.5
69707;BME280;56975;55.726;37.566;2024-01-15T07:40:00;97470.0;;;-5.2;95.3
69707;BME280;56975;55.726;37.566;2024-01-15T07:45:00;97450.0;;;-5.2;95.4
69707;BME280;56975;55.726;37.566;2024-01-15T07:50:00;97460.0;;;-4.9;94.6
69707;BME280;56975;55.726;37.566;2024-01-15T07:55:00;97460.0;;;-5.0;94.7
69707;BME280;56975;55.726;37.566;2024-01-15T08:00:00;97450.0;;;-4.7;94.3
69707;BME280;56975;55.726;37.566;2024-01-15T08:05:00;97430.0;;;-4.9;94.9
69707;BME280;56975;55.726;37.566;2024-01-15T08:10:00;97450.0;;;-4.7;95.1
69707;BME280;56975;55.726;37.566;2024-01-15T08:15:00;97460.0;;;-4.7;95.3
69707;BME280;56975;55.726;37.566;2024-01-15T08:20:00;97450.0;;;-4.6;95.2
69707;BME280;56975;55.726;37.566;2024-01-15T08:25:00;97460.0;;;-4.7;96.1
69707;BME280;56975;55.726;37.566;2024-01-15T08:35:00;97460.0;;;-3.4;93.2
69707;BME280;56975;55.726;37.566;2024-01-15T08:40:01;97450.0;;;-4.0;94.5
69707;BME280;56975;55.726;37.566;2024-01-15T08:45:00;97460.0;;;-4.1;95.0
69707;BME280;56975;55.726;37.566;2024-01-15T08:50:00;97460.0;;;-3.2;92.1
69707;BME280;56975;55.726;37.566;2024-01-15T08:55:05;97460.0;;;-3.8;91.6
69707;BME280;56975;55.726;37.566;2024-01-15T09:00:00;97470.0;;;-3.8;92.7
69707;BME280;56975;55.726;37.566;2024-01-15T09:05:00;97460.0;;;-3.6;91.6
69707;BME280;56975;55.726;37.566;2024-01-15T09:10:00;97470.0;;;-3.4;91.7
69707;BME280;56975;55.726;37.566;2024-01-15T09:15:00;97460.0;;;-3.3;90.3
69707;BME280;56975;55.726;37.566;2024-01-15T09:20:00;97450.0;;;-3.6;90.8
69707;BME280;56975;55.726;37.566;2024-01-15T09:25:10;97440.0;;;-3.5;90.1
69707;BME280;56975;55.726;37.566;2024-01-15T09:40:00;97450.0;;;-3.1;90.6
69707;BME280;56975;55.726;37.566;2024-01-15T09:50:00;97450.0;;;-2.6;88.4
69707;BME280;56975;55.726;37.566;2024-01-15T09:55:05;97460.0;;;-1.7;85.8
69707;BME280;56975;55.726;37.566;2024-01-15T10:00:02;97460.0;;;-2.6;88.3
69707;BME280;56975;55.726;37.566;2024-01-15T10:05:00;97450.0;;;-2.5;86.0
69707;BME280;56975;55.726;37.566;2024-01-15T10:10:05;97460.0;;;-2.0;83.6
69707;BME280;56975;55.726;37.566;2024-01-15T10:15:01;97470.0;;;-2.8;86.7
69707;BME280;56975;55.726;37.566;2024-01-15T10:25:01;97460.0;;;-2.6;86.8
69707;BME280;56975;55.726;37.566;2024-01-15T10:30:00;97450.0;;;-3.0;88.6
69707;BME280;56975;55.726;37.566;2024-01-15T10:35:00;97450.0;;;-2.9;88.9
69707;BME280;56975;55.726;37.566;2024-01-15T10:40:01;97460.0;;;-2.6;87.2
69707;BME280;56975;55.726;37.566;2024-01-15T10:45:01;97470.0;;;-2.4;88.6
69707;BME280;56975;55.726;37.566;2024-01-15T10:50:01;97470.0;;;-2.5;86.9
69707;BME280;56975;55.726;37.566;2024-01-15T10:55:06;97440.0;;;-2.7;88.6
69707;BME280;56975;55.726;37.566;2024-01-15T11:00:00;97450.0;;;-3.1;90.6
69707;BME280;56975;55.726;37.566;2024-01-15T11:05:00;97450.0;;;-3.1;90.6
69707;BME280;56975;55.726;37.566;2024-01-15T11:10:02;97450.0;;;-2.9;89.6
69707;BME280;56975;55.726;37.566;2024-01-15T11:15:03;97450.0;;;-3.3;91.6
69707;BME280;56975;55.726;37.566;2024-01-15T11:20:00;97450.0;;;-2.9;89.7
69707;BME280;56975;55.726;37.566;2024-01-15T11:25:02;97460.0;;;-2.0;86.4
69707;BME280;56975;55.726;37.566;2024-01-15T11:30:03;97450.0;;;-2.5;86.4
69707;BME280;56975;55.726;37.566;2024-01-15T11:35:02;97450.0;;;-2.9;88.9
69707;BME280;56975;55.726;37.566;2024-01-15T11:40:02;97440.0;;;-2.3;86.7
69707;BME280;56975;55.726;37.566;2024-01-15T11:45:00;97430.0;;;-2.7;88.3
69707;BME280;56975;55.726;37.566;2024-01-15T11:50:01;97450.0;;;-2.3;85.5
69707;BME280;56975;55.726;37.566;2024-01-15T11:55:10;97440.0;;;-2.5;87.7
69707;BME280;56975;55.726;37.566;2024-01-15T12:00:02;97440.0;;;-2.7;88.2
69707;BME280;56975;55.726;37.566;2024-01-15T12:05:00;97450.0;;;-2.8;88.6
69707;BME280;56975;55.726;37.566;2024-01-15T12:10:03;97450.0;;;-2.1;86.2
69707;BME280;56975;55.726;37.566;2024-01-15T12:15:00;97440.0;;;-2.9;88.2
69707;BME280;56975;55.726;37.566;2024-01-15T12:20:00;97440.0;;;-2.7;88.7
69707;BME280;56975;55.726;37.566;2024-01-15T12:25:00;97440.0;;;-2.6;88.8
69707;BME280;56975;55.726;37.566;2024-01-15T12:30:00;97450.0;;;-2.3;89.0
69707;BME280;56975;55.726;37.566;2024-01-15T12:40:00;97440.0;;;-1.9;85.9
69707;BME280;56975;55.726;37.566;2024-01-15T12:45:00;97440.0;;;-2.8;88.3
69707;BME280;56975;55.726;37.566;2024-01-15T12:50:00;97440.0;;;-2.6;89.3
69707;BME280;56975;55.726;37.566;2024-01-15T12:55:00;97430.0;;;-3.0;90.0
69707;BME280;56975;55.726;37.566;2024-01-15T13:00:00;97440.0;;;-3.0;90.7
69707;BME280;56975;55.726;37.566;2024-01-15T13:05:00;97450.0;;;-3.0;91.5
69707;BME280;56975;55.726;37.566;2024-01-15T13:10:00;97460.0;;;-2.3;90.1
69707;BME280;56975;55.726;37.566;2024-01-15T13:15:00;97460.0;;;-3.0;91.9
69707;BME280;56975;55.726;37.566;2024-01-15T13:20:00;97460.0;;;-2.3;88.6
69707;BME280;56975;55.726;37.566;2024-01-15T13:25:00;97450.0;;;-2.3;89.5
69707;BME280;56975;55.726;37.566;2024-01-15T13:30:00;97440.0;;;-3.0;91.7
69707;BME280;56975;55.726;37.566;2024-01-15T13:35:00;97460.0;;;-2.5;91.2
69707;BME280;56975;55.726;37.566;2024-01-15T13:40:00;97460.0;;;-2.7;92.3
69707;BME280;56975;55.726;37.566;2024-01-15T13:45:00;97450.0;;;-3.0;92.6
69707;BME280;56975;55.726;37.566;2024-01-15T13:50:00;97470.0;;;-2.9;93.3
69707;BME280;56975;55.726;37.566;2024-01-15T13:55:00;97470.0;;;-2.8;92.8
69707;BME280;56975;55.726;37.566;2024-01-15T14:00:00;97460.0;;;-2.5;90.9
69707;BME280;56975;55.726;37.566;2024-01-15T14:05:00;97460.0;;;-2.4;92.1
69707;BME280;56975;55.726;37.566;2024-01-15T14:10:03;97460.0;;;-2.6;92.5
69707;BME280;56975;55.726;37.566;2024-01-15T14:15:01;97450.0;;;-2.9;94.1
69707;BME280;56975;55.726;37.566;2024-01-15T14:20:00;97460.0;;;-2.9;93.9
69707;BME280;56975;55.726;37.566;2024-01-15T14:25:00;97460.0;;;-2.9;95.7
69707;BME280;56975;55.726;37.566;2024-01-15T14:30:00;97460.0;;;-3.0;96.6
69707;BME280;56975;55.726;37.566;2024-01-15T14:35:00;97440.0;;;-3.1;98.5
69707;BME280;56975;55.726;37.566;2024-01-15T14:40:00;97430.0;;;-3.2;99.5
69707;BME280;56975;55.726;37.566;2024-01-15T14:45:00;97430.0;;;-3.3;99.7
69707;BME280;56975;55.726;37.566;2024-01-15T14:50:00;97430.0;;;-3.2;99.6
69707;BME280;56975;55.726;37.566;2024-01-15T14:55:05;97430.0;;;-3.2;99.7
69707;BME280;56975;55.726;37.566;2024-01-15T15:00:00;97430.0;;;-3.2;100.0
69707;BME280;56975;55.726;37.566;2024-01-15T15:05:00;97440.0;;;-3.2;99.8
69707;BME280;56975;55.726;37.566;2024-01-15T15:10:00;97450.0;;;-3.2;99.5
69707;BME280;56975;55.726;37.566;2024-01-15T15:15:00;97430.0;;;-3.1;98.1
69707;BME280;56975;55.726;37.566;2024-01-15T15:20:00;97440.0;;;-2.8;97.8
69707;BME280;56975;55.726;37.566;2024-01-15T15:25:00;97440.0;;;-3.0;97.8
69707;BME280;56975;55.726;37.566;2024-01-15T15:30:00;97450.0;;;-3.1;98.4
69707;BME280;56975;55.726;37.566;2024-01-15T15:35:10;97450.0;;;-3.0;98.6
69707;BME280;56975;55.726;37.566;2024-01-15T15:40:00;97440.0;;;-3.0;99.4
69707;BME280;56975;55.726;37.566;2024-01-15T15:45:00;97430.0;;;-3.1;99.4
69707;BME280;56975;55.726;37.566;2024-01-15T15:50:00;97430.0;;;-3.0;99.2
69707;BME280;56975;55.726;37.566;2024-01-15T15:55:00;97420.0;;;-3.0;98.9
69707;BME280;56975;55.726;37.566;2024-01-15T16:00:00;97420.0;;;-3.2;98.8
69707;BME280;56975;55.726;37.566;2024-01-15T16:05:00;97430.0;;;-3.1;98.5
69707;BME280;56975;55.726;37.566;2024-01-15T16:10:00;97420.0;;;-3.0;97.9
69707;BME280;56975;55.726;37.566;2024-01-15T16:15:01;97420.0;;;-2.9;97.3
69707;BME280;56975;55.726;37.566;2024-01-15T16:20:00;97410.0;;;-3.0;98.1
69707;BME280;56975;55.726;37.566;2024-01-15T16:25:00;97420.0;;;-3.0;98.8
69707;BME280;56975;55.726;37.566;2024-01-15T16:30:00;97430.0;;;-2.9;98.2
69707;BME280;56975;55.726;37.566;2024-01-15T16:35:00;97410.0;;;-3.0;98.8
69707;BME280;56975;55.726;37.566;2024-01-15T16:45:00;97400.0;;;-3.0;98.8
69707;BME280;56975;55.726;37.566;2024-01-15T16:50:00;97390.0;;;-3.1;99.3
69707;BME280;56975;55.726;37.566;2024-01-15T16:55:01;97400.0;;;-2.9;99.3
69707;BME280;56975;55.726;37.566;2024-01-15T17:00:00;97390.0;;;-3.1;99.7
69707;BME280;56975;55.726;37.566;2024-01-15T17:10:03;97400.0;;;-3.0;100.0
69707;BME280;56975;55.726;37.566;2024-01-15T17:15:14;97390.0;;;-3.1;100.0
69707;BME280;56975;55.726;37.566;2024-01-15T17:20:00;97390.0;;;-3.2;100.0
69707;BME280;56975;55.726;37.566;2024-01-15T17:25:00;97390.0;;;-3.1;100.0
69707;BME280;56975;55.726;37.566;2024-01-15T17:30:00;97380.0;;;-3.2;100.0
69707;BME280;56975;55.726;37.566;2024-01-15T17:35:01;97390.0;;;-3.3;100.0
69707;BME280;56975;55.726;37.566;2024-01-15T17:40:00;97400.0;;;-3.1;100.0
69707;BME280;56975;55.726;37.566;2024-01-15T17:45:00;97380.0;;;-3.3;100.0
69707;BME280;56975;55.726;37.566;2024-01-15T17:50:00;97370.0;;;-3.4;100.0
69707;BME280;56975;55.726;37.566;2024-01-15T17:55:07;97390.0;;;-3.2;100.0
69707;BME280;56975;55.726;37.566;2024-01-15T18:00:05;97380.0;;;-3.3;100.0
69707;BME280;56975;55.726;37.566;2024-01-15T18:05:00;97380.0;;;-3.3;100.0
69707;BME280;56975;55.726;37.566;2024-01-15T18:10:05;97370.0;;;-3.3;100.0
69707;BME280;56975;55.726;37.566;2024-01-15T18:15:00;97380.0;;;-3.2;100.0
69707;BME280;56975;55.726;37.566;2024-01-15T18:20:00;97370.0;;;-3.3;100.0
69707;BME280;56975;55.726;37.566;2024-01-15T18:25:00;97350.0;;;-3.3;100.0
69707;BME280;56975;55.726;37.566;2024-01-15T18:30:00;97380.0;;;-3.3;100.0
69707;BME280;56975;55.726;37.566;2024-01-15T18:35:00;97350.0;;;-3.2;100.0
69707;BME280;56975;55.726;37.566;2024-01-15T18:40:00;97340.0;;;-3.2;100.0
69707;BME280;56975;55.726;37.566;2024-01-15T18:45:00;97350.0;;;-3.3;100.0
69707;BME280;56975;55.726;37.566;2024-01-15T18:50:00;97330.0;;;-3.3;100.0
69707;BME280;56975;55.726;37.566;2024-01-15T18:55:05;97320.0;;;-3.3;100.0
69707;BME280;56975;55.726;37.566;2024-01-15T19:00:00;97340.0;;;-3.2;100.0
69707;BME280;56975;55.726;37.566;2024-01-15T19:05:00;97330.0;;;-3.3;100.0
69707;BME280;56975;55.726;37.566;2024-01-15T19:10:05;97310.0;;;-3.2;100.0
69707;BME280;56975;55.726;37.566;2024-01-15T19:15:00;97320.0;;;-3.2;100.0
69707;BME280;56975;55.726;37.566;2024-01-15T19:20:00;97320.0;;;-3.1;100.0
69707;BME280;56975;55.726;37.566;2024-01-15T19:25:00;97300.0;;;-3.2;100.0
69707;BME280;56975;55.726;37.566;2024-01-15T19:30:00;97300.0;;;-3.1;100.0
69707;BME280;56975;55.726;37.566;2024-01-15T19:35:00;97290.0;;;-3.1;100.0
69707;BME280;56975;55.726;37.566;2024-01-15T19:40:00;97290.0;;;-3.1;100.0
69707;BME280;56975;55.726;37.566;2024-01-15T19:45:00;97290.0;;;-3.0;100.0
69707;BME280;56975;55.726;37.566;2024-01-15T19:50:00;97300.0;;;-3.0;100.0
69707;BME280;56975;55.726;37.566;2024-01-15T19:55:00;97300.0;;;-2.9;100.0
69707;BME280;56975;55.726;37.566;2024-01-15T20:00:00;97270.0;;;-3.0;100.0
69707;BME280;56975;55.726;37.566;2024-01-15T20:05:00;97280.0;;;-3.0;100.0
69707;BME280;56975;55.726;37.566;2024-01-15T20:10:00;97290.0;;;-3.0;100.0
69707;BME280;56975;55.726;37.566;2024-01-15T20:15:01;97270.0;;;-3.0;100.0
69707;BME280;56975;55.726;37.566;2024-01-15T20:20:00;97280.0;;;-2.7;100.0
69707;BME280;56975;55.726;37.566;2024-01-15T20:25:00;97280.0;;;-2.9;100.0
69707;BME280;56975;55.726;37.566;2024-01-15T20:30:00;97290.0;;;-2.8;100.0
69707;BME280;56975;55.726;37.566;2024-01-15T20:35:00;97280.0;;;-2.9;100.0
69707;BME280;56975;55.726;37.566;2024-01-15T20:40:00;97290.0;;;-2.7;100.0
69707;BME280;56975;55.726;37.566;2024-01-15T20:45:00;97280.0;;;-2.6;100.0
69707;BME280;56975;55.726;37.566;2024-01-15T20:50:00;97290.0;;;-2.5;100.0
69707;BME280;56975;55.726;37.566;2024-01-15T20:55:00;97270.0;;;-2.5;100.0
69707;BME280;56975;55.726;37.566;2024-01-15T21:00:00;97290.0;;;-2.3;100.0
69707;BME280;56975;55.726;37.566;2024-01-15T21:05:00;97280.0;;;-2.5;100.0
69707;BME280;56975;55.726;37.566;2024-01-15T21:10:00;97290.0;;;-2.5;100.0
69707;BME280;56975;55.726;37.566;2024-01-15T21:15:00;97280.0;;;-2.5;100.0
69707;BME280;56975;55.726;37.566;2024-01-15T21:20:00;97280.0;;;-2.4;100.0
69707;BME280;56975;55.726;37.566;2024-01-15T21:25:01;97290.0;;;-2.5;100.0
69707;BME280;56975;55.726;37.566;2024-01-15T21:30:00;97280.0;;;-2.1;99.5
69707;BME280;56975;55.726;37.566;2024-01-15T21:35:00;97280.0;;;-2.3;99.9
69707;BME280;56975;55.726;37.566;2024-01-15T21:40:00;97280.0;;;-2.4;100.0
69707;BME280;56975;55.726;37.566;2024-01-15T21:45:00;97280.0;;;-2.3;100.0
69707;BME280;56975;55.726;37.566;2024-01-15T21:50:00;97290.0;;;-2.2;100.0
69707;BME280;56975;55.726;37.566;2024-01-15T22:05:00;97300.0;;;-2.1;100.0
69707;BME280;56975;55.726;37.566;2024-01-15T22:10:03;97290.0;;;-1.6;98.1
69707;BME280;56975;55.726;37.566;2024-01-15T22:15:00;97280.0;;;-1.8;97.9
69707;BME280;56975;55.726;37.566;2024-01-15T22:20:00;97300.0;;;-1.4;97.1
69707;BME280;56975;55.726;37.566;2024-01-15T22:25:00;97270.0;;;-2.2;98.2
69707;BME280;56975;55.726;37.566;2024-01-15T22:30:00;97280.0;;;-1.6;96.3
69707;BME280;56975;55.726;37.566;2024-01-15T22:40:00;97270.0;;;-1.5;94.4
69707;BME280;56975;55.726;37.566;2024-01-15T22:50:00;97300.0;;;-1.7;93.9
69707;BME280;56975;55.726;37.566;2024-01-15T23:00:00;97280.0;;;-1.5;93.2
69707;BME280;56975;55.726;37.566;2024-01-15T23:10:00;97270.0;;;-1.4;92.3
69707;BME280;56975;55.726;37.566;2024-01-15T23:15:13;97280.0;;;-1.2;90.8
69707;BME280;56975;55.726;37.566;2024-01-15T23:20:00;97270.0;;;-1.6;91.8
69707;BME280;56975;55.726;37.566;2024-01-15T23:25:08;97280.0;;;-1.8;92.9
69707;BME280;56975;55.726;37.566;2024-01-15T23:30:00;97280.0;;;-1.6;92.0
69707;BME280;56975;55.726;37.566;2024-01-15T23:35:03;97270.0;;;-1.5;90.4
69707;BME280;56975;55.726;37.566;2024-01-15T23:40:00;97300.0;;;-1.6;90.6
69707;BME280;56975;55.726;37.566;2024-01-15T23:45:00;97300.0;;;-1.5;91.0
69707;BME280;56975;55.726;37.566;2024-01-15T23:50:00;97280.0;;;-1.4;90.0
69707;BME280;56975;55.726;37.566;2024-01-15T23:55:00;97290.0;;;-1.7;89.6
